X  Luk Metar data     LIML Milano Linate Airport
Temperatur
27°C Temperatur
19°C Duggpunkt
62% Fugtighed



Vind
5 KM/T
3 MPT
1 M/S
3 KNOB



340°
NNV
Nuværende forhold

For det meste spredte skyer For det meste spredte skyer
Tryk 1012.92 (hPa) - 29.91 (inHg)
Sigt 6.2 (mil) - 10 (km)
Lufthavn
Lufthavnskode LIML

Lokation: Milano Linate Airport
Afstand: 100 (km)

Metar:
LIML 132020Z 34003KT 9999 SCT050 27/19 Q1013 NOSIG

Tid: 13-08-2020 22:20 CEST